Kathryn, ND

10:02 PM CDT on August 21, 2014 (GMT -0500)
Gwinner-melroe | Change Station
CLOSE
Current Station
Airport
Location: Gwinner,
Elevation: 1266 ft
Nearby Weather Stations

Elev 1266 ft 46.22 °N, 97.64 °W | Updated 7 minutes ago

Clear
Clear
72 °F
Feels Like 72 °F
N
0
Wind Variable Wind from North

Today
High -- | Low -- °F
--% Chance of Precip.
Yesterday
High -- | Low -- °F
Precip. -- in
6:37 AM 8:31 PM
Waning Crescent, 11% visible
Pressure 29.90 in
Visibility 10.0 miles
Clouds Clear
Dew Point 72 °F
Humidity 100%
Rainfall 0.10 in
Snow Depth Not available.
UV 0 out of 12
Pollen 6.30 out of 12
Air Quality Not available.
Flu Activity Not available.
METAR KGWR 220255Z AUTO 00000KT 10SM CLR 22/22 A2990 RMK A01 P000

More Conditions Fewer Conditions

Pressure 29.90 in
Visibility 10.0 miles
Clouds Clear
Dew Point 72 °F
Humidity 100%
Rainfall 0.10 in
Snow Depth Not available.
UV 0 out of 12
Pollen 6.30 out of 12
Air Quality Not available.
Flu Activity Not available.
METAR KGWR 220255Z AUTO 00000KT 10SM CLR 22/22 A2990 RMK A01 P000

More Conditions Fewer Conditions

10-Day Weather Forecast

Almanac

Astronomy

Aug. 21, 2014 Rise Set
Actual Time 6:37 AM CDT 8:31 PM CDT
Civil Twilight 6:05 AM CDT 9:03 PM CDT
Nautical Twilight 5:25 AM CDT 9:43 PM CDT
Astronomical Twilight 4:41 AM CDT 10:27 PM CDT
Moon 3:03 AM CDT (8/21) 6:06 PM CDT (8/21)
Length of Visible Light 14h 58m
Length of Day
13h 53m
Tomorrow will be 3m 6s shorter.
Waning Crescent, 11% of the Moon is Illuminated
Today
Waning Crescent
Aug 25
New
Sep 2
First Quarter
Sep 8
Full
Sep 15
Last Quarter

Today's Extremes

State Highs State Lows

Community

WunderPhotos

Upload Photos

1,746,112 photos uploaded!

WunderBlogs® & News

Nearby

Snow Depth

Station Depth Elevation
No new snow has been reported.

Earthquake Activity

City Distance Mag. Time & Date
No recent earthquake activity has been reported nearby.
Minimum magnitude displayed is 2.5.

Coastal Water Temperatures

Place Temperature
No Stations Reporting

Nearby Weather Stations